Alcalde, Kentucky
Current Conditions -  °F | °C
As of 3:55 AM on Saturday 22 Nov 2014 (Local Time) from KSME Reporting Station
Clear Clear  
Wind Chill: -1°   Ceiling: Unl
Heat Index:   Visibility: 10mi
Dew Point: -7°   Wind: 5mph
Humidity: 56%   Direction: 190°S
Pressure: 30.39"   Gusts: NA
Location:  37.0813°N, 84.4741°W
Report Text: KSME 220855Z AUTO 19004KT 10SM CLR 01/M07 A3039 RMK AO2
Loading
Personal Weather Stations






























Interactive Weather Map New forecast layout! Learn more

10-Day Weather Forecast

Advertisements
Track Severe Weather on mobile